createdAt,value
2023-05-09T00:01:36.167Z,0.30
2023-05-09T00:04:03.571Z,0.40
2023-05-09T00:06:32.324Z,0.50
2023-05-09T00:09:02.772Z,0.40
2023-05-09T00:11:30.124Z,0.63
2023-05-09T00:13:58.731Z,0.37
2023-05-09T00:16:26.370Z,0.63
2023-05-09T00:18:53.800Z,0.50
2023-05-09T00:21:21.256Z,0.37
2023-05-09T00:23:48.760Z,0.28
2023-05-09T00:26:16.765Z,0.30
2023-05-09T00:28:44.280Z,0.47
2023-05-09T00:31:11.616Z,0.30
2023-05-09T00:33:38.918Z,0.53
2023-05-09T00:36:06.522Z,0.30
2023-05-09T00:38:33.884Z,0.50
2023-05-09T00:41:01.263Z,0.20
2023-05-09T00:43:28.690Z,0.60
2023-05-09T00:45:56.493Z,0.60
2023-05-09T00:48:23.977Z,0.47
2023-05-09T00:50:53.309Z,0.30
2023-05-09T00:53:21.280Z,0.30
2023-05-09T00:55:49.082Z,0.33
2023-05-09T00:58:16.962Z,0.33
2023-05-09T01:00:44.322Z,0.47
2023-05-09T01:03:12.291Z,0.63
2023-05-09T01:05:45.801Z,0.30
2023-05-09T01:08:39.482Z,0.20
2023-05-09T01:11:12.086Z,0.40
2023-05-09T01:13:45.323Z,0.30
2023-05-09T01:16:12.841Z,0.40
2023-05-09T01:18:43.284Z,0.40
2023-05-09T01:21:16.683Z,0.30
2023-05-09T01:23:47.005Z,0.30
2023-05-09T01:26:20.285Z,0.20
2023-05-09T01:29:06.401Z,0.37
2023-05-09T01:31:35.263Z,0.53
2023-05-09T01:34:03.456Z,0.40
2023-05-09T01:36:33.055Z,0.20
2023-05-09T01:39:00.643Z,0.30
2023-05-09T01:41:29.883Z,0.40
2023-05-09T01:43:58.296Z,0.50
2023-05-09T01:46:26.619Z,0.50
2023-05-09T01:48:55.045Z,0.33
2023-05-09T01:51:22.449Z,0.33
2023-05-09T01:53:53.482Z,0.30
2023-05-09T01:56:21.762Z,0.40
2023-05-09T01:58:50.884Z,0.40
2023-05-09T02:01:19.537Z,0.30
2023-05-09T02:03:50.805Z,0.20
2023-05-09T02:06:18.678Z,0.40
2023-05-09T02:08:46.526Z,0.40
2023-05-09T02:11:13.881Z,0.30
2023-05-09T02:13:41.406Z,0.30
2023-05-09T02:16:10.507Z,0.23
2023-05-09T02:18:38.464Z,0.23
2023-05-09T02:21:06.009Z,0.37
2023-05-09T02:23:33.480Z,0.50
2023-05-09T02:26:01.294Z,0.40
2023-05-09T02:28:29.612Z,0.37
2023-05-09T02:30:58.859Z,0.40
2023-05-09T02:33:27.323Z,0.40
2023-05-09T02:35:55.560Z,0.30
2023-05-09T02:38:23.201Z,0.40
2023-05-09T02:40:52.549Z,0.40
2023-05-09T02:43:20.124Z,0.50
2023-05-09T02:45:47.546Z,0.30
2023-05-09T02:48:15.039Z,0.40
2023-05-09T02:50:43.562Z,0.40
2023-05-09T02:53:11.121Z,0.30
2023-05-09T02:55:38.602Z,0.57
2023-05-09T02:58:14.022Z,0.63
2023-05-09T03:00:42.682Z,0.50
2023-05-09T03:03:10.332Z,0.33
2023-05-09T03:05:38.120Z,0.60
2023-05-09T03:08:05.640Z,0.47
2023-05-09T03:10:33.078Z,0.40
2023-05-09T03:13:00.671Z,0.40
2023-05-09T03:15:28.041Z,0.30
2023-05-09T03:17:55.629Z,0.30
2023-05-09T03:20:23.161Z,0.40
2023-05-09T03:22:50.647Z,0.37
2023-05-09T03:25:18.123Z,0.30
2023-05-09T03:27:45.964Z,0.30
2023-05-09T03:30:16.606Z,0.43
2023-05-09T03:32:44.355Z,0.37
2023-05-09T03:35:11.996Z,0.40
2023-05-09T03:37:40.053Z,0.43
2023-05-09T03:40:08.056Z,0.40
2023-05-09T03:42:35.500Z,0.43
2023-05-09T03:45:02.842Z,0.30
2023-05-09T03:47:30.377Z,0.40
2023-05-09T03:49:57.885Z,0.57
2023-05-09T03:52:25.933Z,0.40
2023-05-09T03:54:53.296Z,0.50
2023-05-09T03:57:20.699Z,0.40
2023-05-09T03:59:48.207Z,0.30
2023-05-09T04:02:16.017Z,0.40
2023-05-09T04:04:43.524Z,0.30
2023-05-09T04:07:11.168Z,0.30
2023-05-09T04:09:38.685Z,0.50
2023-05-09T04:12:06.251Z,0.30
2023-05-09T04:14:33.645Z,0.30
2023-05-09T04:17:01.210Z,0.33
2023-05-09T04:19:28.766Z,0.50
2023-05-09T04:21:56.247Z,0.50
2023-05-09T04:24:23.646Z,0.47
2023-05-09T04:26:51.126Z,0.40
2023-05-09T04:29:18.404Z,0.43
2023-05-09T04:31:45.922Z,0.50
2023-05-09T04:34:13.750Z,0.70
2023-05-09T04:36:41.137Z,0.60
2023-05-09T04:39:08.932Z,0.50
2023-05-09T04:41:36.326Z,0.60
2023-05-09T04:44:03.808Z,0.70
2023-05-09T04:46:31.284Z,0.50
2023-05-09T04:48:58.739Z,0.33
2023-05-09T04:51:26.169Z,0.70
2023-05-09T04:53:56.698Z,0.60
2023-05-09T04:56:24.328Z,0.40
2023-05-09T04:58:52.927Z,1.63
2023-05-09T05:01:20.403Z,0.40
2023-05-09T05:03:47.848Z,0.43
2023-05-09T05:06:15.326Z,0.53
2023-05-09T05:08:43.336Z,0.40
2023-05-09T05:11:10.668Z,0.40
2023-05-09T05:13:38.059Z,0.40
2023-05-09T05:16:05.758Z,0.30
2023-05-09T05:18:33.259Z,0.40
2023-05-09T05:21:00.693Z,0.53
2023-05-09T05:23:28.084Z,0.47
2023-05-09T05:25:58.210Z,0.53
2023-05-09T05:28:26.044Z,0.67
2023-05-09T05:30:53.581Z,0.50
2023-05-09T05:33:20.900Z,0.70
2023-05-09T05:35:48.577Z,0.60
2023-05-09T05:38:16.005Z,0.40
2023-05-09T05:40:43.402Z,0.40
2023-05-09T05:43:10.806Z,0.43
2023-05-09T05:45:38.329Z,0.90
2023-05-09T05:48:05.965Z,0.50
2023-05-09T05:50:33.525Z,0.87
2023-05-09T05:53:01.080Z,1.27
2023-05-09T05:55:28.407Z,0.53
2023-05-09T05:57:58.540Z,0.53
2023-05-09T06:00:26.003Z,0.60
2023-05-09T06:02:53.539Z,0.50
2023-05-09T06:05:21.258Z,1.27
2023-05-09T06:07:48.736Z,0.67
2023-05-09T06:10:17.254Z,0.70
2023-05-09T06:12:44.707Z,0.60
2023-05-09T06:15:12.596Z,0.60
2023-05-09T06:17:40.544Z,0.60
2023-05-09T06:20:08.201Z,0.50
2023-05-09T06:22:35.805Z,0.40
2023-05-09T06:25:03.540Z,0.50
2023-05-09T06:27:31.004Z,0.40
2023-05-09T06:30:04.175Z,0.47
2023-05-09T06:32:36.013Z,0.50
2023-05-09T06:35:03.491Z,0.50
2023-05-09T06:37:34.063Z,0.37
2023-05-09T06:40:01.714Z,0.47
2023-05-09T06:42:30.243Z,0.37
2023-05-09T06:44:57.690Z,0.50
2023-05-09T06:47:25.170Z,0.40
2023-05-09T06:49:52.561Z,0.30
2023-05-09T06:52:21.733Z,0.60
2023-05-09T06:54:49.250Z,0.40
2023-05-09T06:57:16.693Z,0.40
2023-05-09T06:59:44.963Z,0.40
2023-05-09T07:02:12.368Z,0.50
2023-05-09T07:04:39.810Z,0.50
2023-05-09T07:07:07.761Z,0.40
2023-05-09T07:09:35.205Z,0.30
2023-05-09T07:12:02.664Z,0.40
2023-05-09T07:14:30.205Z,0.30
2023-05-09T07:17:09.909Z,0.55
2023-05-09T07:19:41.670Z,0.45
2023-05-09T07:22:09.203Z,0.40
2023-05-09T07:24:36.778Z,0.47
2023-05-09T07:27:04.375Z,0.67
2023-05-09T07:29:31.769Z,0.70
2023-05-09T07:31:59.183Z,0.50
2023-05-09T07:34:26.850Z,0.40
2023-05-09T07:36:54.425Z,0.50
2023-05-09T07:39:21.993Z,0.30
2023-05-09T07:41:49.565Z,0.50
2023-05-09T07:44:16.925Z,0.53
2023-05-09T07:46:44.431Z,0.40
2023-05-09T07:49:11.887Z,0.47
2023-05-09T07:51:39.290Z,0.40
2023-05-09T07:54:07.125Z,0.60
2023-05-09T07:56:34.535Z,0.50
2023-05-09T07:59:03.565Z,1.27
2023-05-09T08:01:31.005Z,0.65
2023-05-09T08:03:58.468Z,0.60
2023-05-09T08:06:26.477Z,0.40
2023-05-09T08:08:53.843Z,0.50
2023-05-09T08:11:21.443Z,0.50
2023-05-09T08:13:48.892Z,0.32
2023-05-09T08:16:17.619Z,0.50
2023-05-09T08:18:46.474Z,0.65
2023-05-09T08:21:13.845Z,0.50
2023-05-09T08:23:41.463Z,0.50
2023-05-09T08:26:08.948Z,0.90
2023-05-09T08:28:36.341Z,0.50
2023-05-09T08:31:03.779Z,0.40
2023-05-09T08:33:31.243Z,0.60
2023-05-09T08:35:58.773Z,0.50
2023-05-09T08:38:26.376Z,0.50
2023-05-09T08:40:53.884Z,0.50
2023-05-09T08:43:23.348Z,0.47
2023-05-09T08:46:00.642Z,0.50
2023-05-09T08:48:29.331Z,0.43
2023-05-09T08:50:57.530Z,0.60
2023-05-09T08:53:25.181Z,0.50
2023-05-09T08:55:52.728Z,0.50
2023-05-09T08:58:22.799Z,0.50
2023-05-09T09:00:50.934Z,0.43
2023-05-09T09:03:18.884Z,0.50
2023-05-09T09:05:48.354Z,0.57
2023-05-09T09:08:17.104Z,0.70
2023-05-09T09:10:48.496Z,0.40
2023-05-09T09:13:17.708Z,0.60
2023-05-09T09:15:47.164Z,0.40
2023-05-09T09:18:21.984Z,0.38
2023-05-09T09:20:51.045Z,0.50
2023-05-09T09:23:20.277Z,0.40
2023-05-09T09:25:48.322Z,0.47
2023-05-09T09:28:16.044Z,0.38
2023-05-09T09:30:48.531Z,0.30
2023-05-09T09:33:22.484Z,0.40
2023-05-09T09:35:54.281Z,0.40
2023-05-09T09:38:22.970Z,0.60
2023-05-09T09:40:59.728Z,0.30
2023-05-09T09:43:30.923Z,0.30
2023-05-09T09:45:58.967Z,0.50
2023-05-09T09:48:27.109Z,0.35
2023-05-09T09:50:56.911Z,0.50
2023-05-09T09:53:24.374Z,0.38
2023-05-09T09:55:54.015Z,0.30
2023-05-09T09:58:22.252Z,0.30
2023-05-09T10:01:05.229Z,0.40
2023-05-09T10:03:36.460Z,0.40
2023-05-09T10:06:04.527Z,0.30
2023-05-09T10:08:32.158Z,0.40
2023-05-09T10:11:00.689Z,0.38
2023-05-09T10:13:29.102Z,0.30
2023-05-09T10:15:58.735Z,0.30
2023-05-09T10:18:28.966Z,0.30
2023-05-09T10:20:57.169Z,0.30
2023-05-09T10:23:26.644Z,0.20
2023-05-09T10:26:08.695Z,0.38
2023-05-09T10:28:36.846Z,0.50
2023-05-09T10:31:08.729Z,0.30
2023-05-09T10:33:43.768Z,0.30
2023-05-09T10:36:11.647Z,0.30
2023-05-09T10:38:39.458Z,0.30
2023-05-09T10:41:07.365Z,0.45
2023-05-09T10:43:36.690Z,0.30
2023-05-09T10:46:08.075Z,0.30
2023-05-09T10:48:35.882Z,0.30
2023-05-09T10:51:03.841Z,0.40
2023-05-09T10:53:44.384Z,0.35
2023-05-09T10:56:28.125Z,0.43
2023-05-09T10:58:55.812Z,0.30
2023-05-09T11:01:31.809Z,0.40
2023-05-09T11:04:00.421Z,0.50
2023-05-09T11:06:49.246Z,0.43
2023-05-09T11:09:28.460Z,0.40
2023-05-09T11:12:10.197Z,0.68
2023-05-09T11:14:46.284Z,0.57
2023-05-09T11:17:14.881Z,0.55
2023-05-09T11:19:48.065Z,0.50
2023-05-09T11:22:21.014Z,0.50
2023-05-09T11:24:49.411Z,0.40
2023-05-09T11:27:26.937Z,0.40
2023-05-09T11:29:55.520Z,0.43
2023-05-09T11:32:27.789Z,0.40
2023-05-09T11:35:09.664Z,0.40
2023-05-09T11:37:47.078Z,0.40
2023-05-09T11:40:15.849Z,0.60
2023-05-09T11:42:44.900Z,0.40
2023-05-09T11:45:13.338Z,0.50
2023-05-09T11:47:41.726Z,0.60
2023-05-09T11:50:13.079Z,0.40
2023-05-09T11:52:41.683Z,0.40
2023-05-09T11:55:12.520Z,0.57
2023-05-09T11:57:41.236Z,0.63
2023-05-09T12:00:10.601Z,0.50
2023-05-09T12:02:38.794Z,0.70
2023-05-09T12:05:13.251Z,0.50
2023-05-09T12:07:41.405Z,0.50
2023-05-09T12:10:10.241Z,0.68
2023-05-09T12:12:38.158Z,0.40
2023-05-09T12:15:08.133Z,0.30
2023-05-09T12:17:35.973Z,0.40
2023-05-09T12:20:05.862Z,0.40
2023-05-09T12:22:34.104Z,0.40
2023-05-09T12:25:02.476Z,0.50
2023-05-09T12:27:30.373Z,0.50
2023-05-09T12:29:57.839Z,0.40
2023-05-09T12:32:25.431Z,0.40
2023-05-09T12:34:54.330Z,0.40
2023-05-09T12:37:21.811Z,0.35
2023-05-09T12:40:04.256Z,0.30
2023-05-09T12:42:32.520Z,0.20
2023-05-09T12:45:00.142Z,0.30
2023-05-09T12:47:29.495Z,0.30
2023-05-09T12:50:00.821Z,0.40
2023-05-09T12:52:34.528Z,0.20
2023-05-09T12:55:09.039Z,0.30
2023-05-09T12:57:36.846Z,0.22
2023-05-09T13:00:06.687Z,0.20
2023-05-09T13:02:38.778Z,0.35
2023-05-09T13:05:18.796Z,0.35
2023-05-09T13:07:49.998Z,0.30
2023-05-09T13:10:21.786Z,0.22
2023-05-09T13:12:50.065Z,0.20
2023-05-09T13:15:20.153Z,0.20
2023-05-09T13:17:48.132Z,0.20
2023-05-09T13:20:15.793Z,0.30
2023-05-09T13:22:46.865Z,0.20
2023-05-09T13:25:16.163Z,0.17
2023-05-09T13:27:43.559Z,0.25
2023-05-09T13:30:11.228Z,0.20
2023-05-09T13:32:38.587Z,0.30
2023-05-09T13:35:08.076Z,0.30
2023-05-09T13:37:35.990Z,0.20
2023-05-09T13:40:04.438Z,0.20
2023-05-09T13:42:32.053Z,0.20
2023-05-09T13:44:59.451Z,0.20
2023-05-09T13:47:26.914Z,0.28
2023-05-09T13:49:54.626Z,0.20
2023-05-09T13:52:22.326Z,0.20
2023-05-09T13:54:49.728Z,0.17
2023-05-09T13:57:17.175Z,0.20
2023-05-09T13:59:44.613Z,0.15
2023-05-09T14:02:12.324Z,0.28
2023-05-09T14:04:40.028Z,0.28
2023-05-09T14:07:09.807Z,0.10
2023-05-09T14:09:40.178Z,0.20
2023-05-09T14:12:08.212Z,0.20
2023-05-09T14:14:35.702Z,0.20
2023-05-09T14:17:03.163Z,0.15
2023-05-09T14:19:30.724Z,0.20
2023-05-09T14:21:58.297Z,0.20
2023-05-09T14:24:26.054Z,0.30
2023-05-09T14:26:53.572Z,0.20
2023-05-09T14:29:21.444Z,0.17
2023-05-09T14:31:48.950Z,0.20
2023-05-09T14:34:16.407Z,0.20
2023-05-09T14:36:43.840Z,0.20
2023-05-09T14:39:11.484Z,0.30
2023-05-09T14:41:38.967Z,0.40
2023-05-09T14:44:06.489Z,0.30
2023-05-09T14:46:33.880Z,0.40
2023-05-09T14:49:04.372Z,0.28
2023-05-09T14:51:33.482Z,0.30
2023-05-09T14:54:03.224Z,0.50
2023-05-09T14:56:32.047Z,0.30
2023-05-09T14:58:59.525Z,0.50
2023-05-09T15:01:27.093Z,0.70
2023-05-09T15:03:54.549Z,0.38
2023-05-09T15:06:23.574Z,0.43
2023-05-09T15:08:51.084Z,0.63
2023-05-09T15:11:18.653Z,0.40
2023-05-09T15:13:46.088Z,0.50
2023-05-09T15:16:13.538Z,0.30
2023-05-09T15:18:45.574Z,0.30
2023-05-09T15:21:13.923Z,0.40
2023-05-09T15:23:41.408Z,0.57
2023-05-09T15:26:14.684Z,0.40
2023-05-09T15:28:44.251Z,0.40
2023-05-09T15:31:11.773Z,0.70
2023-05-09T15:33:39.242Z,0.40
2023-05-09T15:36:07.064Z,0.40
2023-05-09T15:38:35.125Z,0.50
2023-05-09T15:41:03.095Z,0.53
2023-05-09T15:43:30.492Z,0.60
2023-05-09T15:45:57.948Z,0.50
2023-05-09T15:48:25.414Z,0.50
2023-05-09T15:50:54.326Z,0.50
2023-05-09T15:53:23.238Z,0.60
2023-05-09T15:55:50.606Z,0.50
2023-05-09T15:58:18.462Z,0.70
2023-05-09T16:00:45.931Z,0.70
2023-05-09T16:03:13.557Z,0.57
2023-05-09T16:05:41.230Z,0.70
2023-05-09T16:08:08.683Z,0.60
2023-05-09T16:10:36.134Z,0.67
2023-05-09T16:13:03.560Z,0.70
2023-05-09T16:15:31.058Z,0.73
2023-05-09T16:17:58.454Z,0.80
2023-05-09T16:20:25.962Z,0.80
2023-05-09T16:22:53.255Z,0.73
2023-05-09T16:25:20.768Z,0.60
2023-05-09T16:27:48.217Z,0.70
2023-05-09T16:30:16.351Z,0.80
2023-05-09T16:32:44.857Z,0.87
2023-05-09T16:35:12.684Z,0.80
2023-05-09T16:37:40.055Z,0.80
2023-05-09T16:40:07.805Z,0.57
2023-05-09T16:42:35.282Z,0.60
2023-05-09T16:45:02.765Z,0.80
2023-05-09T16:47:30.309Z,0.90
2023-05-09T16:49:57.722Z,1.00
2023-05-09T16:52:25.085Z,0.90
2023-05-09T16:54:54.788Z,0.90
2023-05-09T16:57:22.617Z,1.10
2023-05-09T16:59:50.006Z,1.00
2023-05-09T17:02:17.382Z,0.80
2023-05-09T17:04:45.215Z,0.70
2023-05-09T17:07:14.519Z,0.90
2023-05-09T17:09:43.288Z,1.20
2023-05-09T17:12:17.463Z,0.87
2023-05-09T17:14:45.697Z,1.20
2023-05-09T17:17:13.844Z,1.00
2023-05-09T17:19:41.727Z,1.13
2023-05-09T17:22:09.485Z,1.10
2023-05-09T17:24:37.285Z,1.07
2023-05-09T17:27:05.438Z,1.00
2023-05-09T17:29:32.845Z,1.00
2023-05-09T17:32:03.219Z,0.90
2023-05-09T17:34:30.645Z,1.00
2023-05-09T17:36:58.969Z,0.77
2023-05-09T17:39:26.445Z,1.03
2023-05-09T17:41:54.526Z,0.90
2023-05-09T17:44:22.138Z,1.20
2023-05-09T17:46:49.575Z,1.20
2023-05-09T17:49:17.167Z,1.00
2023-05-09T17:51:44.926Z,1.20
2023-05-09T17:54:16.128Z,1.10
2023-05-09T17:56:44.004Z,1.10
2023-05-09T17:59:11.493Z,1.30
2023-05-09T18:01:39.035Z,1.17
2023-05-09T18:04:06.496Z,1.10
2023-05-09T18:06:33.964Z,1.20
2023-05-09T18:09:01.736Z,1.27
2023-05-09T18:11:29.481Z,1.30
2023-05-09T18:13:57.082Z,1.40
2023-05-09T18:16:24.716Z,1.40
2023-05-09T18:18:52.218Z,1.43
2023-05-09T18:21:19.688Z,1.33
2023-05-09T18:23:47.324Z,1.40
2023-05-09T18:26:17.566Z,1.67
2023-05-09T18:28:45.007Z,1.60
2023-05-09T18:31:13.679Z,1.33
2023-05-09T18:33:41.285Z,1.50
2023-05-09T18:36:11.765Z,1.73
2023-05-09T18:38:39.891Z,1.50
2023-05-09T18:41:08.651Z,1.90
2023-05-09T18:43:37.565Z,2.13
2023-05-09T18:46:05.493Z,1.97
2023-05-09T18:48:33.605Z,1.80
2023-05-09T18:51:01.128Z,2.00
2023-05-09T18:53:29.126Z,2.13
2023-05-09T18:55:57.011Z,1.80
2023-05-09T18:58:24.937Z,2.00
2023-05-09T19:00:53.269Z,1.50
2023-05-09T19:03:21.205Z,1.47
2023-05-09T19:05:48.695Z,1.60
2023-05-09T19:08:16.563Z,1.37
2023-05-09T19:10:43.927Z,1.70
2023-05-09T19:13:12.795Z,1.70
2023-05-09T19:15:41.648Z,2.00
2023-05-09T19:18:09.165Z,1.70
2023-05-09T19:20:46.840Z,1.63
2023-05-09T19:23:14.201Z,2.20
2023-05-09T19:25:41.921Z,1.60
2023-05-09T19:28:14.571Z,2.53
2023-05-09T19:30:42.130Z,1.70
2023-05-09T19:33:09.535Z,1.67
2023-05-09T19:35:38.402Z,1.80
2023-05-09T19:38:05.842Z,1.83
2023-05-09T19:40:33.246Z,1.50
2023-05-09T19:43:00.768Z,2.23
2023-05-09T19:45:28.207Z,2.07
2023-05-09T19:47:55.740Z,2.50
2023-05-09T19:50:23.414Z,2.10
2023-05-09T19:52:50.923Z,1.70
2023-05-09T19:55:18.420Z,2.07
2023-05-09T19:57:45.973Z,1.87
2023-05-09T20:00:13.989Z,1.90
2023-05-09T20:02:41.998Z,1.80
2023-05-09T20:05:09.846Z,1.93
2023-05-09T20:07:37.286Z,1.03
2023-05-09T20:10:04.724Z,0.80
2023-05-09T20:12:32.046Z,0.70
2023-05-09T20:14:59.406Z,0.67
2023-05-09T20:17:26.875Z,0.70
2023-05-09T20:19:54.340Z,0.60
2023-05-09T20:22:21.767Z,0.70
2023-05-09T20:24:49.208Z,0.60
2023-05-09T20:27:16.564Z,0.53
2023-05-09T20:29:44.080Z,0.80
2023-05-09T20:32:11.383Z,0.70
2023-05-09T20:34:38.723Z,0.60
2023-05-09T20:37:06.210Z,0.60
2023-05-09T20:39:33.562Z,0.60
2023-05-09T20:42:02.591Z,0.60
2023-05-09T20:44:30.212Z,0.60
2023-05-09T20:46:57.604Z,0.60
2023-05-09T20:49:25.884Z,0.40
2023-05-09T20:51:54.005Z,0.50
2023-05-09T20:54:23.048Z,0.37
2023-05-09T20:56:50.764Z,0.50
2023-05-09T20:59:18.365Z,0.40
2023-05-09T21:01:45.802Z,0.40
2023-05-09T21:04:13.094Z,0.60
2023-05-09T21:06:40.447Z,0.37
2023-05-09T21:09:09.329Z,0.40
2023-05-09T21:11:38.476Z,0.60
2023-05-09T21:14:06.004Z,0.53
2023-05-09T21:16:33.510Z,0.50
2023-05-09T21:19:04.902Z,0.50
2023-05-09T21:21:33.324Z,0.50
2023-05-09T21:24:03.346Z,0.60
2023-05-09T21:26:31.321Z,0.50
2023-05-09T21:28:58.720Z,0.63
2023-05-09T21:31:26.803Z,0.53
2023-05-09T21:33:54.324Z,0.57
2023-05-09T21:36:21.725Z,0.70
2023-05-09T21:38:49.122Z,0.60
2023-05-09T21:41:16.611Z,0.53
2023-05-09T21:43:44.079Z,0.70
2023-05-09T21:46:11.543Z,0.70
2023-05-09T21:48:38.999Z,0.50
2023-05-09T21:51:08.446Z,0.60
2023-05-09T21:53:36.121Z,0.57
2023-05-09T21:56:03.639Z,0.87
2023-05-09T21:58:31.118Z,0.60
2023-05-09T22:00:58.406Z,0.90
2023-05-09T22:03:26.170Z,0.80
2023-05-09T22:05:53.560Z,0.70
2023-05-09T22:08:20.882Z,0.80
2023-05-09T22:10:48.362Z,0.60
2023-05-09T22:13:15.751Z,0.60
2023-05-09T22:15:43.332Z,0.70
2023-05-09T22:18:11.587Z,0.80
2023-05-09T22:20:39.009Z,0.60
2023-05-09T22:23:06.368Z,0.80
2023-05-09T22:25:33.722Z,0.80
2023-05-09T22:28:01.123Z,0.60
2023-05-09T22:30:28.518Z,0.63
2023-05-09T22:32:55.961Z,0.60
2023-05-09T22:35:23.431Z,0.70
2023-05-09T22:37:50.969Z,0.60
2023-05-09T22:40:18.386Z,0.70
2023-05-09T22:42:46.001Z,0.60
2023-05-09T22:45:13.445Z,0.80
2023-05-09T22:47:40.904Z,0.80
2023-05-09T22:50:08.758Z,0.70
2023-05-09T22:52:36.209Z,0.60
2023-05-09T22:55:03.606Z,0.73
2023-05-09T22:57:31.407Z,0.63
2023-05-09T22:59:58.728Z,0.70
2023-05-09T23:02:26.748Z,0.50
2023-05-09T23:04:54.118Z,0.70
2023-05-09T23:07:22.042Z,0.60
2023-05-09T23:09:49.451Z,0.37
2023-05-09T23:12:16.803Z,0.77
2023-05-09T23:14:44.165Z,0.63
2023-05-09T23:17:11.644Z,0.50
2023-05-09T23:19:39.090Z,0.67
2023-05-09T23:22:06.447Z,0.50
2023-05-09T23:24:33.764Z,0.70
2023-05-09T23:27:02.722Z,0.50
2023-05-09T23:29:30.083Z,0.60
2023-05-09T23:31:57.588Z,0.87
2023-05-09T23:34:25.246Z,0.80
2023-05-09T23:36:52.732Z,0.50
2023-05-09T23:39:20.244Z,0.57
2023-05-09T23:41:47.645Z,0.50
2023-05-09T23:44:15.061Z,0.50
2023-05-09T23:46:42.552Z,0.50
2023-05-09T23:49:10.044Z,0.60
2023-05-09T23:51:37.405Z,0.60
2023-05-09T23:54:04.976Z,0.70
2023-05-09T23:56:33.048Z,0.80
2023-05-09T23:59:00.526Z,0.80
